Time;durP1;ratioP1;P1;durP2;ratioP2;P2;SDS_P1;SDS_P2;PMS_P1;PMS_P2;Temp;Humidity;BMP_temperature;BMP_pressure;BME280_temperature;BME280_humidity;BME280_pressure;Samples;Min_cycle;Max_cycle;Signal;HPM_P1;HPM_P2
2023/08/30 00:01:18;;;;;;;8.73;7.87;;;12.60;99.90;;;12.39;100.00;97274.63;5094067;28;20502;-71
2023/08/30 00:03:45;;;;;;;8.33;7.63;;;12.60;99.90;;;12.35;100.00;97284.31;5092080;28;20933;-71
2023/08/30 00:06:12;;;;;;;8.07;7.27;;;12.60;99.90;;;12.32;100.00;97285.59;5094284;28;20463;-71
2023/08/30 00:08:41;;;;;;;8.43;7.73;;;12.50;99.90;;;12.41;100.00;97286.03;5092731;28;20514;-72
2023/08/30 00:11:08;;;;;;;7.87;6.97;;;12.60;99.90;;;12.49;100.00;97291.06;5094201;28;20932;-70
2023/08/30 00:13:35;;;;;;;9.33;8.53;;;12.60;99.90;;;12.64;100.00;97287.75;5092342;28;20475;-70
2023/08/30 00:16:03;;;;;;;9.13;8.33;;;12.80;99.90;;;12.57;100.00;97282.50;5087685;28;20454;-71
2023/08/30 00:18:30;;;;;;;8.80;8.10;;;12.80;99.90;;;12.59;100.00;97284.97;5090596;28;20517;-70
2023/08/30 00:20:57;;;;;;;9.50;8.70;;;12.80;99.90;;;12.65;100.00;97273.13;5093158;28;20922;-69
2023/08/30 00:23:24;;;;;;;9.30;8.43;;;12.80;99.90;;;12.67;100.00;97275.63;5102206;28;20446;-70
2023/08/30 00:25:53;;;;;;;9.67;8.87;;;12.90;99.90;;;12.61;100.00;97274.72;5092337;28;20449;-71
2023/08/30 00:28:20;;;;;;;9.13;8.33;;;12.90;99.90;;;12.57;100.00;97276.28;5107628;28;20477;-69
2023/08/30 00:30:53;;;;;;;8.63;7.93;;;12.80;99.90;;;12.57;100.00;97287.13;5092378;28;20445;-69
2023/08/30 00:33:20;;;;;;;10.73;8.30;;;12.80;99.90;;;12.41;100.00;97254.34;5089860;28;20472;-70
2023/08/30 00:35:56;;;;;;;8.83;8.03;;;12.70;99.90;;;12.46;100.00;97275.28;5090973;28;20505;-70
2023/08/30 00:38:23;;;;;;;9.37;8.47;;;12.70;99.90;;;12.55;100.00;97268.38;5084323;28;20438;-69
2023/08/30 00:40:50;;;;;;;8.63;7.80;;;12.70;99.90;;;12.48;100.00;97267.75;5091549;28;20763;-69
2023/08/30 00:43:19;;;;;;;10.27;8.27;;;12.70;99.90;;;12.33;100.00;97249.34;5087813;28;20479;-69
2023/08/30 00:45:47;;;;;;;8.80;8.10;;;12.70;99.90;;;12.37;100.00;97276.75;5091571;28;20448;-71
2023/08/30 00:48:15;;;;;;;10.43;9.33;;;12.60;99.90;;;12.27;100.00;97272.00;5091829;28;20477;-70
2023/08/30 00:50:43;;;;;;;9.17;7.60;;;12.50;99.90;;;12.26;100.00;97278.47;5091186;28;20455;-71
2023/08/30 00:53:12;;;;;;;9.23;8.43;;;12.40;99.90;;;12.21;100.00;97272.94;5091439;28;20871;-70
2023/08/30 00:55:42;;;;;;;9.10;8.20;;;12.40;99.90;;;12.18;100.00;97271.56;5106411;28;20450;-70
2023/08/30 00:58:11;;;;;;;8.50;7.70;;;12.30;99.90;;;12.18;100.00;97272.38;5091056;28;20444;-69
2023/08/30 01:00:40;;;;;;;10.27;9.20;;;12.30;99.90;;;12.12;100.00;97270.66;5092098;28;20467;-69
2023/08/30 01:03:08;;;;;;;10.07;9.00;;;12.30;99.90;;;12.02;100.00;97273.16;5090670;28;20458;-69
2023/08/30 01:05:35;;;;;;;11.00;9.77;;;12.20;99.90;;;12.04;100.00;97268.34;5091433;28;20493;-69
2023/08/30 01:08:03;;;;;;;9.43;8.53;;;12.20;99.90;;;12.02;100.00;97273.16;5092254;28;20512;-69
2023/08/30 01:10:45;;;;;;;9.37;8.47;;;12.20;99.90;;;12.08;100.00;97274.94;5091670;28;20447;-70
2023/08/30 01:13:19;;;;;;;9.87;8.97;;;12.20;99.90;;;12.11;100.00;97271.72;5085536;28;20454;-70
2023/08/30 01:15:49;;;;;;;11.97;8.03;;;12.20;99.90;;;12.15;100.00;97269.38;5091849;28;20465;-70
2023/08/30 01:18:19;;;;;;;9.27;8.37;;;12.30;99.90;;;12.07;100.00;97267.88;5091808;28;20446;-70
2023/08/30 01:20:48;;;;;;;8.80;7.90;;;12.30;99.90;;;12.08;100.00;97265.97;5091618;28;20441;-70
2023/08/30 01:23:31;;;;;;;9.10;8.40;;;12.30;99.90;;;12.04;100.00;97265.63;5092214;28;20476;-70
2023/08/30 01:26:09;;;;;;;9.17;8.27;;;12.30;99.90;;;12.02;100.00;97256.94;5091368;28;20445;-71
2023/08/30 01:28:40;;;;;;;9.30;8.50;;;12.30;99.90;;;12.00;100.00;97245.50;5088915;28;20504;-70
2023/08/30 01:31:09;;;;;;;8.80;8.00;;;12.30;99.90;;;12.15;100.00;97274.78;5093025;28;20840;-70
2023/08/30 01:33:37;;;;;;;10.23;8.97;;;12.40;99.90;;;12.19;100.00;97275.91;5092319;28;20961;-71
2023/08/30 01:36:06;;;;;;;10.50;8.00;;;12.40;99.90;;;12.27;100.00;97280.13;5082546;28;20452;-70
2023/08/30 01:38:34;;;;;;;10.03;9.00;;;12.40;99.90;;;12.38;100.00;97268.41;5088676;28;20836;-70
2023/08/30 01:41:02;;;;;;;8.80;7.93;;;12.60;99.90;;;12.38;100.00;97276.53;5083672;28;20927;-70
2023/08/30 01:43:31;;;;;;;9.33;8.43;;;12.60;99.90;;;12.52;100.00;97274.31;5087235;28;20453;-70
2023/08/30 01:46:00;;;;;;;8.50;7.80;;;12.70;99.90;;;12.50;100.00;97281.03;5092295;28;20449;-70
2023/08/30 01:48:30;;;;;;;8.07;7.40;;;12.70;99.90;;;12.51;100.00;97280.78;5092342;28;20559;-71
2023/08/30 01:50:58;;;;;;;8.77;8.07;;;12.70;99.90;;;12.60;100.00;97275.78;5091856;28;20527;-69
2023/08/30 01:53:27;;;;;;;9.77;8.87;;;12.80;99.90;;;12.57;100.00;97262.72;5090624;28;20509;-69
2023/08/30 01:55:54;;;;;;;8.60;7.80;;;12.90;99.90;;;12.58;100.00;97280.63;5091266;28;20446;-69
2023/08/30 01:58:21;;;;;;;8.77;7.90;;;12.90;99.90;;;12.64;100.00;97276.91;5090849;28;20477;-69
2023/08/30 02:00:48;;;;;;;8.83;8.13;;;12.90;99.90;;;12.49;100.00;97258.53;5088988;28;20932;-71
2023/08/30 02:03:17;;;;;;;7.67;7.07;;;12.90;99.90;;;12.63;100.00;97274.47;5090397;28;20941;-70
2023/08/30 02:06:04;;;;;;;8.87;8.07;;;12.90;99.90;;;12.57;100.00;97282.50;5087649;28;20484;-70
2023/08/30 02:08:38;;;;;;;8.03;7.03;;;12.80;99.90;;;12.55;100.00;97273.00;5091985;28;20979;-69
2023/08/30 02:11:13;;;;;;;7.77;7.10;;;12.80;99.90;;;12.64;100.00;97276.91;5091983;28;20940;-70
2023/08/30 02:13:42;;;;;;;7.73;7.13;;;12.80;99.90;;;12.65;100.00;97278.56;5090001;28;20452;-70
2023/08/30 02:16:10;;;;;;;7.60;7.00;;;12.90;99.90;;;12.69;100.00;97285.16;5085220;28;20969;-70
2023/08/30 02:18:39;;;;;;;8.17;7.47;;;12.90;99.90;;;12.66;100.00;97279.41;5089619;28;20448;-70
2023/08/30 02:21:07;;;;;;;7.50;6.90;;;12.90;99.90;;;12.71;100.00;97276.75;5091578;28;20500;-71
2023/08/30 02:23:34;;;;;;;10.27;6.87;;;13.00;99.90;;;12.68;100.00;97277.25;5090757;28;20460;-69
2023/08/30 02:26:03;;;;;;;7.53;7.03;;;13.00;99.90;;;12.71;100.00;97271.34;5083608;28;21007;-70
2023/08/30 02:28:30;;;;;;;8.23;7.50;;;13.00;99.90;;;12.60;100.00;97254.09;5090279;28;20958;-70
2023/08/30 02:30:57;;;;;;;7.67;7.07;;;13.00;99.90;;;12.66;100.00;97269.38;5091392;28;20964;-71
2023/08/30 02:33:24;;;;;;;8.03;7.33;;;13.00;99.90;;;12.67;100.00;97265.59;5090314;28;20448;-69
2023/08/30 02:35:54;;;;;;;8.80;7.03;;;13.00;99.90;;;12.71;100.00;97266.75;5089995;28;20455;-69
2023/08/30 02:38:21;;;;;;;7.13;6.43;;;13.00;99.90;;;12.75;100.00;97270.59;5086609;28;20459;-69
2023/08/30 02:40:49;;;;;;;6.90;6.30;;;13.10;99.90;;;12.67;100.00;97265.59;5082883;28;20806;-68
2023/08/30 02:43:16;;;;;;;7.23;6.63;;;13.00;99.90;;;12.63;100.00;97261.72;5090701;28;20518;-70
2023/08/30 02:45:43;;;;;;;6.73;6.03;;;12.90;99.90;;;12.64;100.00;97263.38;5090242;28;20510;-70
2023/08/30 02:48:10;;;;;;;7.07;6.57;;;12.90;99.90;;;12.75;100.00;97262.47;5091337;28;20444;-70
2023/08/30 02:50:37;;;;;;;6.40;5.90;;;12.90;99.90;;;12.71;100.00;97255.91;5090991;28;20480;-70
2023/08/30 02:53:08;;;;;;;7.70;7.10;;;13.00;99.90;;;12.81;100.00;97259.81;5086803;28;20499;-69
2023/08/30 02:55:35;;;;;;;6.50;6.00;;;13.00;99.90;;;12.77;100.00;97264.09;5091173;28;20472;-70
2023/08/30 02:58:03;;;;;;;6.40;5.57;;;13.00;99.90;;;12.67;100.00;97254.78;5091226;28;20456;-68
2023/08/30 03:00:30;;;;;;;5.90;5.40;;;13.00;99.90;;;12.73;100.00;97261.06;5091204;28;20886;-69
2023/08/30 03:02:57;;;;;;;6.20;5.63;;;13.00;99.90;;;12.65;100.00;97258.78;5088813;28;20538;-70
2023/08/30 03:05:24;;;;;;;6.90;6.30;;;12.90;99.90;;;12.61;100.00;97261.16;5090857;28;20825;-69
2023/08/30 03:07:52;;;;;;;6.13;5.63;;;12.80;99.90;;;12.54;100.00;97260.50;5089493;28;20505;-69
2023/08/30 03:10:21;;;;;;;6.07;5.47;;;12.80;99.90;;;12.44;100.00;97259.28;5082633;28;20474;-69
2023/08/30 03:12:48;;;;;;;8.50;6.57;;;12.70;99.90;;;12.47;100.00;97261.47;5089471;28;20453;-69
2023/08/30 03:15:15;;;;;;;6.00;5.50;;;12.70;99.90;;;12.46;100.00;97265.25;5090796;28;20449;-69
2023/08/30 03:17:43;;;;;;;6.20;5.70;;;12.70;99.90;;;12.39;100.00;97272.75;5090723;28;20440;-71
2023/08/30 03:20:11;;;;;;;7.03;6.43;;;12.60;99.90;;;12.41;100.00;97262.47;5082204;28;20502;-71
2023/08/30 03:22:38;;;;;;;7.40;6.80;;;12.70;99.90;;;12.38;100.00;97257.56;5083257;28;20460;-70
2023/08/30 03:25:06;;;;;;;7.27;6.67;;;12.70;99.90;;;12.55;100.00;97273.00;5084961;28;20474;-70
2023/08/30 03:27:35;;;;;;;6.40;5.90;;;12.70;99.90;;;12.51;100.00;97266.41;5091135;28;21001;-70
2023/08/30 03:30:03;;;;;;;5.80;5.30;;;12.70;99.90;;;12.51;100.00;97266.41;5092516;28;20476;-69
2023/08/30 03:32:32;;;;;;;6.93;5.97;;;12.80;99.90;;;12.52;100.00;97270.78;5094747;28;20935;-69
2023/08/30 03:34:59;;;;;;;7.00;6.30;;;12.80;99.90;;;12.50;100.00;97268.31;5094527;28;20807;-69
2023/08/30 03:37:26;;;;;;;6.53;6.03;;;12.80;99.90;;;12.45;100.00;97271.75;5094655;28;20451;-69
2023/08/30 03:39:53;;;;;;;7.57;6.70;;;12.80;99.90;;;12.46;100.00;97265.25;5096720;28;20800;-69
2023/08/30 03:42:20;;;;;;;7.03;6.43;;;12.70;99.90;;;12.47;100.00;97261.47;5090185;28;20456;-69
2023/08/30 03:44:49;;;;;;;6.73;6.03;;;12.70;99.90;;;12.38;100.00;97262.97;5097351;28;20931;-69
2023/08/30 03:47:16;;;;;;;6.50;5.90;;;12.60;99.90;;;12.34;100.00;97269.94;5093985;28;20503;-69
2023/08/30 03:49:45;;;;;;;9.00;6.40;;;12.60;99.90;;;12.35;100.00;97268.06;5092324;28;20467;-70
2023/08/30 03:52:12;;;;;;;7.40;6.80;;;12.60;99.90;;;12.25;100.00;97268.72;5096450;28;20456;-70
2023/08/30 03:54:40;;;;;;;6.83;6.33;;;12.50;99.90;;;12.19;100.00;97270.50;5095267;28;20966;-70
2023/08/30 03:57:07;;;;;;;7.13;6.47;;;12.40;99.90;;;12.24;100.00;97272.50;5092575;28;20448;-70
2023/08/30 03:59:34;;;;;;;6.37;5.80;;;12.40;99.90;;;12.23;100.00;97276.25;5096917;28;20457;-69
2023/08/30 04:02:03;;;;;;;7.40;6.33;;;12.50;99.90;;;12.17;100.00;97273.44;5096217;28;20946;-69
2023/08/30 04:04:30;;;;;;;7.60;7.00;;;12.50;99.90;;;12.18;100.00;97275.09;5092510;28;20510;-68
2023/08/30 04:06:57;;;;;;;7.77;7.07;;;12.50;99.90;;;12.17;100.00;97273.44;5095570;28;20448;-69
2023/08/30 04:09:24;;;;;;;8.17;7.00;;;12.60;99.90;;;12.02;100.00;97263.19;5097150;28;21004;-69
2023/08/30 04:11:51;;;;;;;8.17;7.37;;;12.50;99.90;;;11.99;100.00;97265.50;5095091;28;20451;-70
2023/08/30 04:14:18;;;;;;;8.00;7.20;;;12.40;99.90;;;12.01;100.00;97260.69;5095756;28;20467;-69
2023/08/30 04:16:45;;;;;;;8.23;7.60;;;12.40;99.90;;;12.01;100.00;97268.78;5095865;28;20484;-69
2023/08/30 04:19:14;;;;;;;8.87;8.07;;;12.40;99.90;;;12.04;100.00;97285.41;5093665;28;20517;-69
2023/08/30 04:21:41;;;;;;;9.03;8.30;;;12.40;99.90;;;11.89;100.00;97288.63;5095877;28;20456;-70
2023/08/30 04:24:09;;;;;;;8.53;7.87;;;12.30;99.90;;;11.93;100.00;97290.84;5096847;28;20916;-69
2023/08/30 04:26:36;;;;;;;8.47;7.67;;;12.30;99.90;;;11.88;100.00;97286.97;5095672;28;20489;-69
2023/08/30 04:29:04;;;;;;;8.23;7.53;;;12.30;99.90;;;11.86;100.00;97286.41;5093661;28;20449;-70
2023/08/30 04:31:31;;;;;;;9.63;7.50;;;12.30;99.90;;;11.87;100.00;97281.81;5094717;28;20482;-70
2023/08/30 04:33:58;;;;;;;8.33;7.53;;;12.30;99.90;;;11.88;100.00;97286.16;5094804;28;20913;-69
2023/08/30 04:36:26;;;;;;;8.90;8.10;;;12.30;99.90;;;12.06;100.00;97281.63;5082186;28;21153;-70
2023/08/30 04:38:54;;;;;;;8.20;7.50;;;12.40;99.90;;;12.11;100.00;97285.25;5094251;28;20448;-70
2023/08/30 04:41:21;;;;;;;8.37;7.10;;;12.40;99.90;;;12.25;100.00;97282.25;5086537;28;20523;-70
2023/08/30 04:43:48;;;;;;;9.70;7.97;;;12.50;99.90;;;12.42;100.00;97280.38;5092097;28;20448;-70
2023/08/30 04:46:16;;;;;;;9.20;8.40;;;12.70;99.90;;;12.39;100.00;97293.59;5090852;28;20510;-70
2023/08/30 04:48:43;;;;;;;8.60;7.80;;;12.70;99.90;;;12.40;100.00;97296.06;5092808;28;20494;-70
2023/08/30 04:51:10;;;;;;;9.00;8.10;;;12.80;99.90;;;12.49;100.00;97301.06;5091778;28;20848;-69
2023/08/30 04:53:40;;;;;;;10.40;8.03;;;12.80;99.90;;;12.66;100.00;97299.19;5080507;28;20450;-69
2023/08/30 04:56:14;;;;;;;8.80;7.87;;;13.00;99.90;;;12.67;100.00;97292.72;5086760;28;20948;-70
2023/08/30 04:58:42;;;;;;;8.73;7.93;;;13.00;99.90;;;12.74;100.00;97285.22;5093050;28;20453;-69
2023/08/30 05:01:11;;;;;;;8.63;7.90;;;13.10;99.90;;;12.72;100.00;97279.22;5085846;28;20435;-69
2023/08/30 05:03:38;;;;;;;8.00;7.30;;;13.10;99.90;;;12.94;100.00;97280.34;5082695;28;20453;-70
2023/08/30 05:06:05;;;;;;;8.17;7.47;;;13.20;99.90;;;13.04;100.00;97281.31;5089817;28;20474;-69
2023/08/30 05:08:32;;;;;;;8.80;8.10;;;13.30;99.90;;;13.07;100.00;97280.00;5093126;28;20454;-70
2023/08/30 05:11:02;;;;;;;8.77;8.03;;;13.40;99.90;;;13.07;100.00;97282.72;5090746;28;20478;-69
2023/08/30 05:13:29;;;;;;;11.33;8.37;;;13.40;99.90;;;13.08;100.00;97288.94;5092295;28;20517;-69
2023/08/30 05:15:56;;;;;;;8.63;7.83;;;13.40;99.90;;;13.09;100.00;97288.72;5091294;28;20464;-70
2023/08/30 05:18:24;;;;;;;8.50;7.80;;;13.50;99.90;;;12.92;100.00;97215.53;5091705;28;20514;-69
2023/08/30 05:20:51;;;;;;;8.93;8.23;;;13.60;99.90;;;13.40;98.87;97282.84;5088909;28;20754;-69
2023/08/30 05:23:18;;;;;;;8.13;7.53;;;13.70;99.80;;;13.54;98.01;97278.72;5085047;28;20460;-70
2023/08/30 05:25:46;;;;;;;8.70;7.93;;;13.90;98.30;;;13.62;97.46;97273.94;5092496;28;20521;-69
2023/08/30 05:28:15;;;;;;;12.20;8.23;;;13.90;97.70;;;13.21;99.07;97279.66;5092781;28;20547;-71
2023/08/30 05:30:44;;;;;;;7.90;7.10;;;13.70;97.30;;;13.49;98.20;97269.72;5105197;28;20473;-70
2023/08/30 05:33:11;;;;;;;9.37;7.73;;;13.70;98.50;;;13.65;97.68;97270.72;5086437;28;20452;-70
2023/08/30 05:35:38;;;;;;;9.03;6.83;;;13.80;98.70;;;13.76;96.47;97269.78;5084500;28;20509;-70
2023/08/30 05:38:05;;;;;;;9.00;8.27;;;13.90;97.90;;;13.75;96.35;97273.56;5092235;28;21001;-70
2023/08/30 05:40:32;;;;;;;7.90;7.17;;;14.00;97.50;;;13.82;96.77;97276.09;5086585;28;20511;-70
2023/08/30 05:43:00;;;;;;;9.50;8.33;;;14.00;97.70;;;13.74;95.16;97269.22;5090282;28;20868;-70
2023/08/30 05:45:29;;;;;;;8.30;7.50;;;14.00;96.40;;;13.74;95.27;97270.00;5092319;28;20474;-70
2023/08/30 05:47:57;;;;;;;8.63;7.70;;;14.00;96.60;;;13.53;95.94;97262.72;5086942;28;20499;-70
2023/08/30 05:50:24;;;;;;;8.40;7.70;;;13.90;96.30;;;13.42;97.70;97259.00;5091860;28;21071;-69
2023/08/30 05:52:53;;;;;;;10.23;8.40;;;13.80;97.20;;;13.60;95.73;97266.88;5087967;28;20848;-69
2023/08/30 05:55:20;;;;;;;9.10;7.77;;;13.90;96.80;;;13.82;94.43;97257.06;5092114;28;20467;-69
2023/08/30 05:57:47;;;;;;;10.33;8.97;;;14.10;96.50;;;14.32;93.16;97255.09;5092017;28;20449;-70
2023/08/30 06:00:15;;;;;;;9.87;8.70;;;14.40;96.10;;;14.24;92.09;97271.88;5091848;28;20449;-70
2023/08/30 06:02:44;;;;;;;10.23;9.10;;;14.50;94.80;;;14.39;91.68;97261.13;5087941;28;20456;-70
2023/08/30 06:05:11;;;;;;;13.20;10.27;;;14.60;94.70;;;14.41;91.15;97269.03;5085576;28;20446;-70
2023/08/30 06:07:39;;;;;;;11.93;9.63;;;14.70;94.10;;;14.78;89.42;97268.25;5093636;28;20507;-69
2023/08/30 06:10:07;;;;;;;11.93;10.80;;;14.90;93.80;;;14.57;89.54;97270.81;5082384;28;20464;-69
2023/08/30 06:12:34;;;;;;;10.30;9.40;;;14.90;93.30;;;14.73;89.96;97276.41;5090960;28;20503;-69
2023/08/30 06:15:03;;;;;;;8.73;7.93;;;14.90;93.60;;;14.75;89.77;97273.41;5091688;28;20454;-69
2023/08/30 06:17:30;;;;;;;10.17;8.80;;;15.10;93.40;;;14.67;89.80;97272.78;5099210;28;20998;-70
2023/08/30 06:19:59;;;;;;;15.70;9.33;;;15.10;93.10;;;14.70;89.91;97272.25;5091788;28;20444;-70
2023/08/30 06:22:26;;;;;;;9.73;8.33;;;15.10;93.00;;;14.81;88.89;97272.38;5096389;28;20447;-70
2023/08/30 06:24:53;;;;;;;12.33;9.27;;;15.10;92.80;;;15.29;86.39;97273.19;5090099;28;20445;-70
2023/08/30 06:27:20;;;;;;;12.00;10.67;;;15.40;92.80;;;15.24;85.72;97270.47;5090601;28;20448;-70
2023/08/30 06:29:48;;;;;;;14.43;11.57;;;15.40;92.20;;;15.36;86.13;97266.69;5091285;28;20466;-70
2023/08/30 06:32:15;;;;;;;10.60;9.50;;;15.50;92.20;;;15.76;84.20;97273.38;5078632;28;20873;-70
2023/08/30 06:34:42;;;;;;;12.37;10.90;;;15.80;92.10;;;16.03;83.18;97277.03;5090158;28;20475;-70
2023/08/30 06:37:11;;;;;;;15.20;13.90;;;16.00;91.80;;;15.68;83.60;97280.16;5082838;28;20446;-69
2023/08/30 06:39:38;;;;;;;15.67;14.30;;;16.00;91.40;;;15.69;83.13;97276.38;5089691;28;20473;-70
2023/08/30 06:42:06;;;;;;;16.57;15.07;;;16.00;91.30;;;15.50;84.25;97273.28;5105546;28;20455;-68
2023/08/30 06:44:33;;;;;;;15.10;13.60;;;15.90;91.20;;;16.18;81.34;97281.69;5090270;28;20935;-71
2023/08/30 06:47:01;;;;;;;16.03;14.53;;;16.20;91.10;;;16.33;79.81;97279.00;5086461;28;20535;-69
2023/08/30 06:49:27;;;;;;;16.20;14.53;;;16.40;90.70;;;16.45;79.40;97275.16;5086092;28;20462;-70
2023/08/30 06:51:55;;;;;;;15.97;14.37;;;16.50;90.50;;;16.20;79.04;97274.06;5088867;28;20970;-70
2023/08/30 06:54:23;;;;;;;15.70;14.03;;;16.50;90.20;;;16.51;78.32;97269.44;5083634;28;20452;-70
2023/08/30 06:57:00;;;;;;;14.30;13.00;;;16.50;90.20;;;16.75;77.05;97268.06;5091076;28;20452;-71
2023/08/30 06:59:28;;;;;;;16.50;14.87;;;16.80;90.10;;;16.71;77.35;97263.19;5091152;28;20918;-69
2023/08/30 07:01:55;;;;;;;14.13;12.77;;;16.70;90.00;;;16.90;76.70;97254.41;5087212;28;20447;-70
2023/08/30 07:04:22;;;;;;;14.90;13.60;;;17.00;89.90;;;16.94;76.44;97255.53;5089925;28;20873;-71
2023/08/30 07:06:50;;;;;;;16.87;15.17;;;17.00;89.50;;;17.25;75.17;97263.66;5089112;28;20449;-69
2023/08/30 07:09:17;;;;;;;16.80;14.80;;;17.20;89.10;;;17.33;73.75;97261.44;5083436;28;20457;-70
2023/08/30 07:11:46;;;;;;;16.80;15.10;;;17.30;88.30;;;17.58;73.64;97267.91;5090294;28;20492;-69
2023/08/30 07:14:14;;;;;;;15.60;14.10;;;17.50;88.30;;;17.32;72.92;97257.09;5091242;28;21103;-69
2023/08/30 07:16:41;;;;;;;17.43;15.87;;;17.60;87.50;;;17.33;73.38;97265.00;5091115;28;20512;-69
2023/08/30 07:19:09;;;;;;;16.80;13.30;;;17.60;87.40;;;17.20;74.86;97263.66;5088074;28;20515;-69
2023/08/30 07:21:38;;;;;;;14.90;13.60;;;17.50;87.80;;;17.55;72.94;97258.34;5089857;28;20452;-68
2023/08/30 07:24:08;;;;;;;15.00;13.50;;;17.60;87.60;;;17.75;72.08;97257.44;5089450;28;20453;-70
2023/08/30 07:26:36;;;;;;;14.40;13.07;;;17.70;87.20;;;17.06;74.58;97246.22;5090771;28;20461;-70
2023/08/30 07:29:05;;;;;;;15.20;13.70;;;17.50;87.30;;;17.42;72.37;97265.25;5089327;28;20451;-70
2023/08/30 07:31:33;;;;;;;15.20;13.80;;;17.40;87.00;;;17.71;71.47;97259.13;5089904;28;20563;-69
2023/08/30 07:34:00;;;;;;;13.80;12.60;;;17.70;86.80;;;17.67;71.11;97238.94;5087964;28;20497;-70
2023/08/30 07:36:28;;;;;;;14.40;13.00;;;17.80;86.30;;;17.81;70.68;97255.53;5083571;28;20441;-70
2023/08/30 07:38:55;;;;;;;14.50;13.20;;;18.00;86.20;;;17.10;73.19;97261.78;5088266;28;20466;-69
2023/08/30 07:41:22;;;;;;;16.73;13.80;;;17.60;86.00;;;16.99;74.04;97261.00;5089587;28;20999;-70
2023/08/30 07:43:50;;;;;;;14.80;13.40;;;17.40;86.70;;;17.05;74.81;97266.44;5090361;28;20819;-70
2023/08/30 07:46:18;;;;;;;16.30;14.60;;;17.30;87.30;;;17.14;74.57;97264.78;5090569;28;21159;-70
2023/08/30 07:48:45;;;;;;;15.37;13.93;;;17.30;87.30;;;17.16;72.93;97265.31;5089928;28;20520;-71
2023/08/30 07:51:12;;;;;;;17.60;15.57;;;17.30;86.60;;;17.12;73.69;97264.25;5090327;28;20865;-69
2023/08/30 07:53:39;;;;;;;16.43;14.83;;;17.20;86.90;;;17.23;73.67;97276.78;5089176;28;20823;-70
2023/08/30 07:56:07;;;;;;;15.33;13.87;;;17.30;87.20;;;16.92;74.37;97267.78;5089878;28;20457;-70
2023/08/30 07:58:34;;;;;;;16.73;15.10;;;17.10;87.00;;;17.17;73.37;97275.13;5090431;28;20538;-70
2023/08/30 08:01:01;;;;;;;15.63;14.23;;;17.20;86.90;;;17.26;73.07;97269.94;5087911;28;20992;-69
2023/08/30 08:03:30;;;;;;;15.40;14.00;;;17.30;87.20;;;16.88;73.22;97270.25;5089593;28;20451;-70
2023/08/30 08:06:00;;;;;;;15.60;14.20;;;17.30;86.20;;;17.11;73.19;97268.06;5090385;28;20454;-69
2023/08/30 08:08:27;;;;;;;15.10;13.60;;;17.20;87.00;;;17.52;72.90;97270.69;5089892;28;20459;-69
2023/08/30 08:10:54;;;;;;;15.97;14.37;;;17.50;86.90;;;17.69;70.68;97274.97;5089631;28;20475;-70
2023/08/30 08:13:21;;;;;;;14.13;12.83;;;17.80;85.90;;;17.96;69.46;97273.72;5088239;28;20974;-69
2023/08/30 08:15:48;;;;;;;15.30;13.77;;;17.90;85.60;;;17.93;68.82;97266.94;5088586;28;20447;-70
2023/08/30 08:18:15;;;;;;;13.93;12.73;;;17.90;85.10;;;17.64;69.60;97245.78;5093563;28;20454;-70
2023/08/30 08:20:44;;;;;;;12.43;11.23;;;18.10;84.70;;;18.39;68.50;97265.81;5089865;28;20451;-70
2023/08/30 08:23:11;;;;;;;12.73;11.60;;;18.30;85.00;;;18.45;67.58;97263.88;5085667;28;20447;-69
2023/08/30 08:25:38;;;;;;;11.93;10.87;;;18.40;84.40;;;18.45;65.68;97263.88;5092678;28;20439;-69
2023/08/30 08:28:06;;;;;;;10.67;9.63;;;18.60;83.00;;;18.60;64.59;97260.22;5094195;28;20506;-69
2023/08/30 08:30:33;;;;;;;11.80;10.60;;;18.70;82.40;;;18.58;64.64;97256.94;5092239;28;20464;-68
2023/08/30 08:33:00;;;;;;;10.40;9.40;;;18.80;82.00;;;18.68;64.73;97250.56;5092947;28;20920;-69
2023/08/30 08:35:28;;;;;;;11.63;10.70;;;18.70;82.10;;;18.95;65.10;97250.03;5088807;28;20452;-69
2023/08/30 08:37:56;;;;;;;10.17;9.30;;;18.90;82.60;;;19.38;63.66;97252.06;5093501;28;20524;-70
2023/08/30 08:40:23;;;;;;;14.90;9.80;;;19.30;82.80;;;19.84;63.41;97258.06;5088381;28;20440;-70
2023/08/30 08:42:52;;;;;;;12.07;10.97;;;19.70;82.50;;;20.23;60.69;97253.44;5088478;28;20510;-69
2023/08/30 08:45:20;;;;;;;12.70;11.50;;;20.30;80.80;;;19.32;62.56;97255.16;5092189;28;20439;-69
2023/08/30 08:47:49;;;;;;;12.03;11.13;;;19.90;80.00;;;19.22;63.50;97248.69;5086242;28;20455;-69
2023/08/30 08:50:16;;;;;;;12.00;10.80;;;19.70;80.30;;;18.79;64.33;97243.88;5086996;28;20452;-69
2023/08/30 08:52:44;;;;;;;12.83;11.63;;;19.40;80.50;;;18.72;65.39;97240.69;5090735;28;20509;-69
2023/08/30 08:55:12;;;;;;;13.07;11.80;;;19.10;81.10;;;19.55;63.54;97234.31;5091001;28;21150;-69
2023/08/30 08:57:40;;;;;;;12.37;11.27;;;19.40;81.10;;;19.39;62.44;97223.56;5087207;28;20452;-70
2023/08/30 09:00:09;;;;;;;11.97;10.63;;;19.60;80.50;;;19.74;61.96;97237.09;5084347;28;20447;-70
2023/08/30 09:02:37;;;;;;;10.97;9.87;;;19.80;80.20;;;20.25;60.56;97240.28;5092339;28;20443;-70
2023/08/30 09:05:05;;;;;;;10.33;9.53;;;20.10;79.80;;;20.30;59.03;97234.69;5092952;28;20455;-69
2023/08/30 09:07:33;;;;;;;11.13;10.10;;;20.30;78.30;;;20.45;58.54;97239.09;5093232;28;20448;-69
2023/08/30 09:10:01;;;;;;;10.10;9.10;;;20.50;78.10;;;20.31;57.57;97239.06;5093100;28;20472;-68
2023/08/30 09:12:33;;;;;;;11.40;10.30;;;20.60;76.80;;;19.67;59.70;97242.16;5086106;28;20470;-69
2023/08/30 09:15:00;;;;;;;13.30;10.80;;;20.10;77.10;;;19.42;62.22;97248.75;5089727;28;20452;-70
2023/08/30 09:17:37;;;;;;;10.60;9.50;;;19.80;78.50;;;19.75;61.19;97241.47;5085473;28;20733;-71
2023/08/30 09:20:09;;;;;;;11.47;10.47;;;19.80;78.60;;;20.27;59.14;97245.44;5092115;28;20535;-69
2023/08/30 09:22:39;;;;;;;11.43;10.43;;;20.20;77.90;;;19.85;60.59;97245.19;5083299;28;20587;-69
2023/08/30 09:25:07;;;;;;;11.10;10.10;;;20.20;77.90;;;19.70;60.32;97241.53;5092317;28;20463;-70
2023/08/30 09:27:38;;;;;;;10.73;9.63;;;20.00;77.30;;;20.36;57.95;97240.91;5090937;28;20554;-69
2023/08/30 09:30:08;;;;;;;9.50;8.50;;;20.30;76.90;;;20.61;57.02;97241.59;5091918;28;20476;-69
2023/08/30 09:32:41;;;;;;;9.00;8.20;;;20.60;76.20;;;20.41;56.47;97245.50;5091316;28;20475;-69
2023/08/30 09:35:11;;;;;;;9.13;8.23;;;20.50;75.30;;;20.81;55.27;97234.97;5078471;28;20445;-68
2023/08/30 09:37:38;;;;;;;8.30;7.50;;;20.80;75.20;;;21.18;53.70;97244.19;5079517;28;20476;-68
2023/08/30 09:40:07;;;;;;;7.83;7.03;;;21.10;73.70;;;20.92;53.44;97244.66;5090670;28;20452;-69
2023/08/30 09:42:35;;;;;;;8.40;7.70;;;21.10;72.40;;;21.26;52.77;97239.09;5087194;28;20497;-71
2023/08/30 09:45:05;;;;;;;9.30;8.40;;;21.30;72.20;;;20.80;56.12;97244.28;5092302;28;20448;-70
2023/08/30 09:47:33;;;;;;;10.40;9.00;;;21.00;74.00;;;20.58;56.13;97242.19;5091941;28;20464;-70
2023/08/30 09:50:01;;;;;;;11.03;10.13;;;20.90;73.60;;;20.92;55.12;97236.44;5091642;28;20450;-71
2023/08/30 09:52:31;;;;;;;9.20;8.43;;;21.10;73.10;;;21.36;54.00;97234.22;5089529;28;20477;-70
2023/08/30 09:54:59;;;;;;;8.70;8.00;;;21.30;73.10;;;21.36;51.88;97233.41;5091875;28;20942;-70
2023/08/30 09:57:28;;;;;;;10.40;9.40;;;21.40;70.90;;;21.07;52.78;97232.56;5088692;28;20435;-70
2023/08/30 09:59:57;;;;;;;9.90;9.00;;;21.20;71.00;;;21.49;52.38;97227.09;5090174;28;20782;-70
2023/08/30 10:02:25;;;;;;;9.93;8.93;;;21.50;71.00;;;21.28;52.64;97206.66;5086526;28;20497;-70
2023/08/30 10:04:53;;;;;;;9.97;8.80;;;21.50;70.70;;;21.58;52.16;97231.88;5091690;28;20501;-71
2023/08/30 10:07:21;;;;;;;8.73;7.90;;;21.50;70.80;;;21.57;52.75;97225.56;5086745;28;20511;-69
2023/08/30 10:09:52;;;;;;;8.27;7.53;;;21.60;70.80;;;22.25;51.01;97219.44;5090655;28;20912;-70
2023/08/30 10:12:21;;;;;;;10.37;9.37;;;22.00;71.10;;;22.05;50.23;97218.75;5090461;28;20975;-68
2023/08/30 10:14:49;;;;;;;9.23;8.40;;;22.10;69.30;;;21.63;51.30;97221.56;5091709;28;20830;-71